Time;durP1;ratioP1;P1;durP2;ratioP2;P2;SDS_P1;SDS_P2;PMS_P1;PMS_P2;Temp;Humidity;BMP_temperature;BMP_pressure;BME280_temperature;BME280_humidity;BME280_pressure;Samples;Min_cycle;Max_cycle;Signal;HPM_P1;HPM_P2
2022/11/07 00:00:16;;;;;;;0.77;0.77;;;;;;;14.45;100.00;99676.38;5053173;28;20204;-70
2022/11/07 00:02:43;;;;;;;0.40;0.40;;;;;;;14.44;100.00;99679.84;5052674;28;20220;-70
2022/11/07 00:05:10;;;;;;;0.70;0.70;;;;;;;14.44;100.00;99679.84;5052696;28;20665;-70
2022/11/07 00:07:37;;;;;;;0.73;0.73;;;;;;;14.41;100.00;99674.81;5052808;28;20285;-70
2022/11/07 00:10:05;;;;;;;0.60;0.60;;;;;;;14.38;100.00;99680.13;5051938;28;20634;-70
2022/11/07 00:12:35;;;;;;;0.60;0.60;;;;;;;14.37;100.00;99675.88;5048997;28;20201;-69
2022/11/07 00:15:04;;;;;;;0.50;0.50;;;;;;;14.38;100.00;99682.69;5051478;28;20311;-70
2022/11/07 00:17:31;;;;;;;0.80;0.80;;;;;;;14.38;100.00;99677.53;5052554;28;20253;-71
2022/11/07 00:19:57;;;;;;;0.50;0.50;;;;;;;14.40;100.00;99675.75;5052205;28;20192;-70
2022/11/07 00:22:24;;;;;;;0.60;0.60;;;;;;;14.42;100.00;99681.69;5051952;28;20212;-70
2022/11/07 00:24:51;;;;;;;1.73;0.60;;;;;;;14.41;100.00;99677.41;5052339;28;20201;-69
2022/11/07 00:27:18;;;;;;;0.50;0.50;;;;;;;14.45;100.00;99678.13;5049691;28;20211;-70
2022/11/07 00:29:46;;;;;;;0.73;0.73;;;;;;;14.46;100.00;99677.22;5052370;28;20200;-69
2022/11/07 00:32:13;;;;;;;0.80;0.80;;;;;;;14.46;100.00;99672.91;5050858;28;20283;-69
2022/11/07 00:34:40;;;;;;;0.40;0.40;;;;;;;14.47;100.00;99674.59;5051852;28;20665;-69
2022/11/07 00:37:06;;;;;;;0.40;0.40;;;;;;;14.49;100.00;99671.94;5052202;28;20200;-69
2022/11/07 00:39:33;;;;;;;0.60;0.60;;;;;;;14.44;100.00;99666.16;5051826;28;20287;-69
2022/11/07 00:42:00;;;;;;;0.50;0.50;;;;;;;14.52;100.00;99671.81;5051796;28;20227;-69
2022/11/07 00:44:27;;;;;;;0.90;0.90;;;;;;;14.54;100.00;99676.00;5051853;28;20193;-69
2022/11/07 00:46:55;;;;;;;0.77;0.77;;;;;;;14.55;100.00;99675.09;5051806;28;20206;-70
2022/11/07 00:49:22;;;;;;;0.90;0.90;;;;;;;14.51;100.00;99670.97;5050766;28;20205;-69
2022/11/07 00:51:49;;;;;;;0.57;0.57;;;;;;;14.49;100.00;99672.78;5051044;28;20197;-70
2022/11/07 00:54:15;;;;;;;0.70;0.70;;;;;;;14.49;100.00;99672.78;5050073;28;20205;-70
2022/11/07 00:56:42;;;;;;;0.50;0.50;;;;;;;14.52;100.00;99675.25;5049463;28;20202;-69
2022/11/07 00:59:09;;;;;;;0.50;0.50;;;;;;;14.51;100.00;99670.97;5051274;28;20209;-69
2022/11/07 01:01:36;;;;;;;0.63;0.63;;;;;;;14.45;100.00;99660.91;5051356;28;20693;-70
2022/11/07 01:06:49;;;;;;;0.40;0.40;;;;;;;14.45;100.00;99671.22;5050160;28;20223;-70
2022/11/07 01:09:19;;;;;;;0.90;0.90;;;;;;;14.48;100.00;99675.41;5050894;28;20208;-70
2022/11/07 01:11:47;;;;;;;0.60;0.60;;;;;;;14.48;100.00;99673.69;5050048;28;20213;-70
2022/11/07 01:14:15;;;;;;;0.53;0.53;;;;;;;14.40;100.00;99655.13;5051251;28;20203;-70
2022/11/07 01:16:42;;;;;;;0.50;0.50;;;;;;;14.51;100.00;99670.97;5051261;28;20193;-70
2022/11/07 01:19:11;;;;;;;5.27;0.93;;;;;;;14.49;100.00;99675.38;5051358;28;20204;-70
2022/11/07 01:21:39;;;;;;;0.50;0.50;;;;;;;14.49;100.00;99670.22;5050633;28;20682;-70
2022/11/07 01:24:07;;;;;;;1.00;1.00;;;;;;;14.50;100.00;99677.06;5050407;28;20201;-70
2022/11/07 01:26:34;;;;;;;0.60;0.60;;;;;;;14.49;100.00;99670.22;5051267;28;20209;-70
2022/11/07 01:29:01;;;;;;;0.70;0.70;;;;;;;14.50;100.00;99674.47;5050925;28;20204;-70
2022/11/07 01:31:30;;;;;;;1.17;1.17;;;;;;;14.48;100.00;99676.25;5049437;28;20211;-70
2022/11/07 01:33:57;;;;;;;1.70;1.03;;;;;;;14.43;100.00;99667.88;5050553;28;20209;-70
2022/11/07 01:36:25;;;;;;;0.60;0.60;;;;;;;14.50;100.00;99674.47;5051164;28;20226;-71
2022/11/07 01:38:52;;;;;;;0.50;0.50;;;;;;;14.47;100.00;99672.03;5051084;28;20262;-70
2022/11/07 01:41:24;;;;;;;3.23;1.03;;;;;;;14.49;100.00;99677.94;5048284;28;20213;-70
2022/11/07 01:44:00;;;;;;;0.80;0.80;;;;;;;14.50;100.00;99681.38;5051046;28;20203;-70
2022/11/07 01:46:30;;;;;;;0.50;0.50;;;;;;;14.50;100.00;99679.63;5050420;28;20695;-70
2022/11/07 01:49:07;;;;;;;2.83;2.63;;;;;;;14.50;100.00;99677.06;5050923;28;20209;-69
2022/11/07 01:51:40;;;;;;;0.60;0.60;;;;;;;14.51;100.00;99676.13;5050753;28;20581;-70
2022/11/07 01:54:07;;;;;;;0.87;0.87;;;;;;;14.52;100.00;99688.13;5049432;28;20584;-70
2022/11/07 01:56:39;;;;;;;0.80;0.80;;;;;;;14.53;100.00;99683.81;5051037;28;20669;-70
2022/11/07 01:59:08;;;;;;;0.70;0.70;;;;;;;14.43;100.00;99667.88;5050570;28;20278;-70
2022/11/07 02:01:34;;;;;;;0.83;0.83;;;;;;;14.53;100.00;99683.81;5050634;28;20217;-70
2022/11/07 02:04:02;;;;;;;0.83;0.83;;;;;;;14.51;100.00;99683.88;5049939;28;20596;-70
2022/11/07 02:06:39;;;;;;;0.43;0.43;;;;;;;14.46;100.00;99672.91;5050025;28;20241;-70
2022/11/07 02:09:06;;;;;;;0.50;0.50;;;;;;;14.55;100.00;99682.00;5049514;28;20202;-66
2022/11/07 02:11:33;;;;;;;0.87;0.87;;;;;;;14.52;100.00;99680.41;5050276;28;20197;-66
2022/11/07 02:14:00;;;;;;;0.93;0.93;;;;;;;14.48;100.00;99686.56;5050637;28;20214;-66
2022/11/07 02:16:28;;;;;;;0.50;0.50;;;;;;;14.48;100.00;99686.56;5050335;28;20650;-66
2022/11/07 02:18:55;;;;;;;0.50;0.50;;;;;;;14.49;100.00;99684.84;5050566;28;20688;-66
2022/11/07 02:21:34;;;;;;;0.97;0.97;;;;;;;14.46;100.00;99688.41;5050189;28;20210;-66
2022/11/07 02:24:14;;;;;;;0.57;0.57;;;;;;;14.42;100.00;99686.84;5050526;28;20197;-66
2022/11/07 02:26:43;;;;;;;0.67;0.67;;;;;;;14.39;100.00;99686.13;5050856;28;20204;-66
2022/11/07 02:29:11;;;;;;;0.90;0.90;;;;;;;14.35;100.00;99685.41;5050297;28;20197;-66
2022/11/07 02:31:38;;;;;;;0.80;0.80;;;;;;;14.34;100.00;99694.06;5050169;28;20196;-66
2022/11/07 02:34:05;;;;;;;0.83;0.83;;;;;;;14.31;100.00;99689.00;5050475;28;20197;-66
2022/11/07 02:36:32;;;;;;;0.40;0.40;;;;;;;14.26;100.00;99690.91;5050879;28;20205;-66
2022/11/07 02:39:00;;;;;;;0.60;0.60;;;;;;;14.20;100.00;99691.16;5054517;28;20193;-66
2022/11/07 02:41:32;;;;;;;0.93;0.93;;;;;;;14.18;100.00;99692.97;5053977;28;20193;-66
2022/11/07 02:44:02;;;;;;;0.60;0.60;;;;;;;14.18;100.00;99692.97;5054169;28;20304;-66
2022/11/07 02:46:32;;;;;;;0.50;0.50;;;;;;;14.19;100.00;99692.06;5054188;28;20576;-66
2022/11/07 02:49:01;;;;;;;0.70;0.70;;;;;;;14.21;100.00;99698.00;5054753;28;20538;-66
2022/11/07 02:51:28;;;;;;;0.50;0.50;;;;;;;14.21;100.00;99687.69;5053933;28;20211;-66
2022/11/07 02:53:55;;;;;;;0.80;0.80;;;;;;;14.19;100.00;99686.91;5054012;28;20206;-66
2022/11/07 02:56:23;;;;;;;0.60;0.60;;;;;;;14.19;100.00;99684.31;5053801;28;20691;-66
2022/11/07 02:58:52;;;;;;;0.60;0.60;;;;;;;14.17;100.00;99689.56;5054156;28;20199;-66
2022/11/07 03:01:19;;;;;;;0.77;0.77;;;;;;;14.17;100.00;99686.13;5053827;28;20224;-66
2022/11/07 03:03:49;;;;;;;0.90;0.90;;;;;;;14.19;100.00;99689.47;5052545;28;20226;-66
2022/11/07 03:06:18;;;;;;;0.60;0.60;;;;;;;14.10;100.00;99679.53;5052951;28;20207;-66
2022/11/07 03:08:45;;;;;;;1.23;1.23;;;;;;;14.12;100.00;99688.03;5053373;28;20200;-66
2022/11/07 03:11:12;;;;;;;1.20;1.20;;;;;;;14.12;100.00;99690.63;5053672;28;20193;-66
2022/11/07 03:13:40;;;;;;;1.80;0.93;;;;;;;13.98;100.00;99674.88;5053632;28;20197;-66
2022/11/07 03:16:10;;;;;;;0.83;0.83;;;;;;;14.07;100.00;99695.13;5053509;28;20614;-66
2022/11/07 03:18:37;;;;;;;0.50;0.50;;;;;;;13.96;100.00;99681.81;5053597;28;20204;-66
2022/11/07 03:21:05;;;;;;;0.50;0.50;;;;;;;14.07;100.00;99692.53;5053105;28;20216;-66
2022/11/07 03:23:34;;;;;;;0.60;0.60;;;;;;;14.06;100.00;99693.44;5053592;28;20293;-66
2022/11/07 03:26:01;;;;;;;0.50;0.50;;;;;;;14.07;100.00;99701.13;5053084;28;20200;-66
2022/11/07 03:28:28;;;;;;;0.70;0.70;;;;;;;13.98;100.00;99687.75;5053629;28;20588;-66
2022/11/07 03:30:55;;;;;;;0.50;0.50;;;;;;;13.86;100.00;99690.81;5052762;28;20193;-66
2022/11/07 03:33:23;;;;;;;1.03;0.80;;;;;;;13.81;100.00;99697.88;5053579;28;20201;-66
2022/11/07 03:35:50;;;;;;;1.07;1.07;;;;;;;13.79;100.00;99697.09;5053099;28;20201;-66
2022/11/07 03:38:17;;;;;;;0.60;0.60;;;;;;;13.81;100.00;99697.88;5052793;28;20216;-66
2022/11/07 03:40:46;;;;;;;0.50;0.50;;;;;;;13.76;100.00;99707.53;5053263;28;20217;-66
2022/11/07 03:43:12;;;;;;;0.87;0.87;;;;;;;13.76;100.00;99710.94;5052755;28;20213;-66
2022/11/07 03:45:39;;;;;;;0.40;0.40;;;;;;;13.77;100.00;99712.59;5053062;28;20696;-66
2022/11/07 03:48:06;;;;;;;0.50;0.50;;;;;;;13.80;100.00;99711.66;5052502;28;20211;-66
2022/11/07 03:50:35;;;;;;;0.70;0.70;;;;;;;13.86;100.00;99708.88;5053065;28;20676;-66
2022/11/07 03:53:01;;;;;;;0.60;0.60;;;;;;;13.86;100.00;99701.13;5052988;28;20198;-66
2022/11/07 03:55:28;;;;;;;0.80;0.80;;;;;;;13.88;100.00;99707.06;5051729;28;20201;-66
2022/11/07 03:57:55;;;;;;;0.50;0.50;;;;;;;13.90;100.00;99710.41;5053248;28;20754;-66
2022/11/07 04:00:22;;;;;;;0.50;0.50;;;;;;;13.92;100.00;99713.78;5051930;28;20646;-66
2022/11/07 04:02:49;;;;;;;0.40;0.40;;;;;;;13.85;100.00;99709.75;5052739;28;20684;-66
2022/11/07 04:05:16;;;;;;;0.70;0.70;;;;;;;13.86;100.00;99711.44;5051276;28;20208;-66
2022/11/07 04:07:44;;;;;;;0.50;0.50;;;;;;;13.80;100.00;99697.03;5052779;28;20201;-66
2022/11/07 04:10:11;;;;;;;0.70;0.70;;;;;;;13.94;100.00;99714.53;5052598;28;20196;-65
2022/11/07 04:18:11;;;;;;;0.50;0.50;;;;;;;13.88;100.00;99717.38;5052633;28;20616;-66
2022/11/07 04:20:38;;;;;;;0.60;0.60;;;;;;;13.86;100.00;99712.25;5052121;28;20266;-66
2022/11/07 04:23:06;;;;;;;0.87;0.87;;;;;;;13.71;100.00;99717.16;5051211;28;20233;-66
2022/11/07 04:28:17;;;;;;;0.60;0.60;;;;;;;13.63;100.00;99715.69;5050046;28;20196;-66
2022/11/07 04:30:44;;;;;;;0.47;0.47;;;;;;;13.68;100.00;99718.97;5051763;28;20278;-66
2022/11/07 04:33:11;;;;;;;0.70;0.70;;;;;;;13.62;100.00;99723.50;5052496;28;20553;-66
2022/11/07 04:35:38;;;;;;;0.70;0.70;;;;;;;13.57;100.00;99726.25;5051884;28;20250;-66
2022/11/07 04:38:06;;;;;;;0.53;0.53;;;;;;;13.59;100.00;99727.03;5052104;28;20201;-65
2022/11/07 04:40:33;;;;;;;0.97;0.93;;;;;;;13.62;100.00;99726.09;5046855;28;20208;-66
2022/11/07 04:42:59;;;;;;;0.50;0.50;;;;;;;13.62;100.00;99726.09;5050469;28;20282;-66
2022/11/07 04:45:26;;;;;;;0.50;0.50;;;;;;;13.52;100.00;99717.84;5051949;28;20208;-66
2022/11/07 04:47:53;;;;;;;0.77;0.77;;;;;;;13.60;100.00;99730.47;5052074;28;20197;-66
2022/11/07 04:50:21;;;;;;;0.47;0.47;;;;;;;13.56;100.00;99729.72;5051907;28;20194;-66
2022/11/07 04:52:48;;;;;;;1.00;1.00;;;;;;;13.57;100.00;99731.38;5051566;28;20204;-66
2022/11/07 04:55:22;;;;;;;0.47;0.47;;;;;;;13.60;100.00;99731.28;5051802;28;20213;-66
2022/11/07 04:57:49;;;;;;;0.63;0.63;;;;;;;13.60;100.00;99736.44;5051164;28;20672;-66
2022/11/07 05:00:17;;;;;;;0.50;0.50;;;;;;;13.63;100.00;99736.31;5050093;28;20204;-66
2022/11/07 05:02:44;;;;;;;0.40;0.40;;;;;;;13.65;100.00;99733.69;5048842;28;20221;-66
2022/11/07 05:05:12;;;;;;;0.50;0.50;;;;;;;13.67;100.00;99735.31;5049092;28;20208;-66
2022/11/07 05:07:39;;;;;;;0.50;0.50;;;;;;;13.69;100.00;99735.28;5049086;28;20200;-66
2022/11/07 05:10:08;;;;;;;0.97;0.97;;;;;;;13.68;100.00;99734.41;5048754;28;20244;-66
2022/11/07 05:12:36;;;;;;;0.43;0.43;;;;;;;13.73;100.00;99743.72;5043258;28;20228;-66
2022/11/07 05:15:03;;;;;;;0.60;0.60;;;;;;;13.76;100.00;99746.19;5050476;28;20282;-66
2022/11/07 05:17:30;;;;;;;0.40;0.40;;;;;;;13.72;100.00;99739.47;5050941;28;20691;-66
2022/11/07 05:19:57;;;;;;;0.70;0.70;;;;;;;13.71;100.00;99737.75;5051247;28;20204;-66
2022/11/07 05:25:09;;;;;;;0.53;0.53;;;;;;;13.66;100.00;99751.69;5050900;28;20209;-66
2022/11/07 05:27:37;;;;;;;0.50;0.50;;;;;;;13.63;100.00;99750.94;5051163;28;20192;-66
2022/11/07 05:30:05;;;;;;;0.40;0.40;;;;;;;13.64;100.00;99748.31;5051145;28;20216;-66
2022/11/07 05:32:36;;;;;;;0.40;0.40;;;;;;;13.67;100.00;99758.50;5050229;28;20192;-66
2022/11/07 05:35:04;;;;;;;0.50;0.50;;;;;;;13.60;100.00;99739.00;5050835;28;20204;-66
2022/11/07 05:37:30;;;;;;;0.60;0.60;;;;;;;13.72;100.00;99765.22;5050741;28;20201;-66
2022/11/07 05:39:57;;;;;;;0.60;0.60;;;;;;;13.73;100.00;99767.75;5051109;28;20196;-66
2022/11/07 05:42:24;;;;;;;0.63;0.63;;;;;;;13.63;100.00;99756.91;5049953;28;20669;-66
2022/11/07 05:44:52;;;;;;;0.77;0.77;;;;;;;13.72;100.00;99767.78;5049810;28;20201;-66
2022/11/07 05:47:19;;;;;;;0.50;0.50;;;;;;;13.70;100.00;99777.34;5050543;28;20205;-66
2022/11/07 05:49:46;;;;;;;0.83;0.83;;;;;;;13.76;100.00;99784.84;5050679;28;20197;-66
2022/11/07 05:52:13;;;;;;;0.67;0.67;;;;;;;13.79;100.00;99774.41;5050147;28;20196;-66
2022/11/07 05:54:39;;;;;;;0.67;0.67;;;;;;;13.82;100.00;99779.44;5049641;28;20204;-66
2022/11/07 05:57:06;;;;;;;0.70;0.70;;;;;;;13.82;100.00;99788.03;5050477;28;20712;-66
2022/11/07 05:59:33;;;;;;;0.43;0.43;;;;;;;13.81;100.00;99790.66;5046776;28;20627;-66
2022/11/07 06:02:01;;;;;;;0.60;0.60;;;;;;;13.80;100.00;99804.41;5049048;28;20251;-66
2022/11/07 06:04:28;;;;;;;0.40;0.40;;;;;;;13.86;100.00;99796.47;5049831;28;20636;-66
2022/11/07 06:06:55;;;;;;;0.40;0.40;;;;;;;13.85;100.00;99803.38;5050719;28;20262;-66
2022/11/07 06:09:21;;;;;;;0.50;0.50;;;;;;;13.89;100.00;99804.09;5049702;28;20201;-66
2022/11/07 06:11:48;;;;;;;0.50;0.50;;;;;;;13.93;100.00;99806.50;5046073;28;20255;-66
2022/11/07 06:14:15;;;;;;;0.60;0.60;;;;;;;13.99;100.00;99808.03;5049972;28;20250;-66
2022/11/07 06:16:42;;;;;;;0.80;0.80;;;;;;;14.02;100.00;99816.44;5050466;28;20553;-66
2022/11/07 06:19:10;;;;;;;0.70;0.70;;;;;;;14.09;100.00;99817.06;5049895;28;20203;-66
2022/11/07 06:21:37;;;;;;;0.80;0.80;;;;;;;14.13;100.00;99823.78;5050221;28;20669;-66
2022/11/07 06:24:04;;;;;;;0.50;0.50;;;;;;;14.16;100.00;99823.66;5050133;28;20686;-66
2022/11/07 06:26:31;;;;;;;0.70;0.70;;;;;;;14.19;100.00;99833.88;5048898;28;20546;-68
2022/11/07 06:28:57;;;;;;;0.50;0.50;;;;;;;14.16;100.00;99828.81;5047905;28;20214;-67
2022/11/07 06:31:24;;;;;;;0.87;0.87;;;;;;;14.28;100.00;99848.97;5045098;28;20212;-66
2022/11/07 06:33:51;;;;;;;0.60;0.60;;;;;;;14.37;100.00;99845.25;5047951;28;20651;-66
2022/11/07 06:36:19;;;;;;;2.10;0.90;;;;;;;14.38;100.00;99847.78;5048714;28;20459;-70
2022/11/07 06:38:50;;;;;;;0.53;0.53;;;;;;;14.38;100.00;99852.13;5049070;28;20942;-66
2022/11/07 06:41:17;;;;;;;0.67;0.67;;;;;;;14.41;100.00;99854.56;5047544;28;20659;-66
2022/11/07 06:43:44;;;;;;;0.73;0.73;;;;;;;14.40;100.00;99856.31;5048418;28;20689;-66
2022/11/07 06:46:13;;;;;;;0.50;0.50;;;;;;;14.41;100.00;99863.13;5048160;28;20204;-66
2022/11/07 06:48:40;;;;;;;0.40;0.40;;;;;;;14.28;100.00;99856.72;5048979;28;20263;-68
2022/11/07 06:51:08;;;;;;;0.70;0.70;;;;;;;14.37;100.00;99874.50;5048415;28;20258;-65
2022/11/07 06:53:37;;;;;;;0.80;0.80;;;;;;;14.43;100.00;99878.56;5049258;28;20615;-66
2022/11/07 06:56:06;;;;;;;0.50;0.50;;;;;;;14.45;100.00;99872.44;5045290;28;20211;-65
2022/11/07 06:58:33;;;;;;;0.50;0.50;;;;;;;14.44;100.00;99870.75;5048147;28;20209;-65
2022/11/07 07:01:01;;;;;;;0.40;0.40;;;;;;;14.41;100.00;99870.88;5049048;28;20210;-66
2022/11/07 07:03:28;;;;;;;0.50;0.50;;;;;;;14.48;100.00;99872.31;5046779;28;20224;-64
2022/11/07 07:05:55;;;;;;;0.80;0.80;;;;;;;14.53;100.00;99867.00;5047178;28;20202;-66
2022/11/07 07:08:22;;;;;;;0.53;0.53;;;;;;;14.61;100.00;99863.19;5049375;28;20260;-66
2022/11/07 07:10:50;;;;;;;0.47;0.47;;;;;;;14.66;100.00;99874.19;5047762;28;20212;-67
2022/11/07 07:13:17;;;;;;;0.60;0.60;;;;;;;14.64;100.00;99862.25;5048265;28;20592;-67
2022/11/07 07:15:51;;;;;;;0.50;0.50;;;;;;;14.68;100.00;99868.97;5048655;28;20309;-66
2022/11/07 07:18:19;;;;;;;0.60;0.60;;;;;;;14.71;100.00;99869.69;5049052;28;20209;-68
2022/11/07 07:20:46;;;;;;;0.50;0.50;;;;;;;14.76;100.00;99868.66;5048822;28;20205;-68
2022/11/07 07:23:13;;;;;;;0.40;0.40;;;;;;;14.87;100.00;99869.06;5049539;28;20220;-68
2022/11/07 07:25:39;;;;;;;0.73;0.73;;;;;;;14.92;100.00;99867.16;5049226;28;20209;-68
2022/11/07 07:28:08;;;;;;;0.47;0.47;;;;;;;14.97;100.00;99870.38;5050544;28;20208;-68
2022/11/07 07:30:34;;;;;;;1.00;1.00;;;;;;;15.15;100.00;99875.63;5052759;28;20680;-68
2022/11/07 07:33:01;;;;;;;0.40;0.40;;;;;;;15.25;100.00;99871.75;5052078;28;20202;-67
2022/11/07 07:35:28;;;;;;;0.50;0.50;;;;;;;15.34;100.00;99873.16;5052044;28;20219;-68
2022/11/07 07:37:55;;;;;;;0.50;0.50;;;;;;;15.48;100.00;99877.75;5052293;28;20201;-67
2022/11/07 07:40:22;;;;;;;0.43;0.43;;;;;;;15.53;100.00;99874.06;5052289;28;20223;-68
2022/11/07 07:42:49;;;;;;;0.70;0.70;;;;;;;15.62;100.00;99867.66;5049142;28;20585;-67
2022/11/07 07:45:17;;;;;;;0.43;0.43;;;;;;;15.66;100.00;99867.47;5052029;28;20664;-68
2022/11/07 07:47:44;;;;;;;0.80;0.80;;;;;;;15.77;100.00;99870.41;5044435;28;20207;-67
2022/11/07 07:50:12;;;;;;;0.60;0.60;;;;;;;15.92;100.00;99868.06;5045495;28;20205;-68
2022/11/07 07:52:39;;;;;;;0.50;0.50;;;;;;;15.99;100.00;99859.13;5049913;28;20204;-68
2022/11/07 07:55:08;;;;;;;1.00;1.00;;;;;;;16.18;100.00;99871.19;5047229;28;20201;-68
2022/11/07 07:57:39;;;;;;;0.73;0.73;;;;;;;16.33;100.00;99874.78;5049944;28;20240;-68
2022/11/07 08:00:06;;;;;;;0.60;0.60;;;;;;;16.38;100.00;99878.00;5049730;28;20300;-68
2022/11/07 08:02:35;;;;;;;0.40;0.40;;;;;;;16.50;100.00;99877.44;5049070;28;20223;-68
2022/11/07 08:05:01;;;;;;;0.50;0.50;;;;;;;16.60;100.00;99878.72;5046299;28;20295;-67
2022/11/07 08:07:28;;;;;;;1.00;1.00;;;;;;;16.63;100.00;99873.41;5050904;28;20635;-68
2022/11/07 08:09:55;;;;;;;0.60;0.60;;;;;;;16.78;100.00;99864.06;5050286;28;20200;-68
2022/11/07 08:12:22;;;;;;;0.50;0.50;;;;;;;16.80;100.00;99870.84;5048437;28;20220;-67
2022/11/07 08:14:49;;;;;;;0.50;0.50;;;;;;;16.90;100.00;99865.25;5050851;28;20234;-70
2022/11/07 08:17:17;;;;;;;0.70;0.70;;;;;;;16.97;100.00;99867.44;5051029;28;20708;-68
2022/11/07 08:19:45;;;;;;;0.70;0.70;;;;;;;17.02;100.00;99869.81;5052065;28;20304;-68
2022/11/07 08:22:11;;;;;;;0.50;0.50;;;;;;;17.09;100.00;99878.97;5047050;28;20201;-67
2022/11/07 08:24:38;;;;;;;0.50;0.50;;;;;;;17.13;100.00;99883.91;5051797;28;20216;-70
2022/11/07 08:27:05;;;;;;;0.50;0.50;;;;;;;17.15;98.89;99882.09;5051532;28;20211;-68
2022/11/07 08:29:32;;;;;;;0.50;0.50;;;;;;;17.24;99.86;99885.97;5051686;28;20197;-68
2022/11/07 08:31:59;;;;;;;0.80;0.80;;;;;;;17.30;100.00;99885.66;5050966;28;20222;-70
2022/11/07 08:34:26;;;;;;;1.60;1.50;;;;;;;17.33;100.00;99885.50;5051272;28;20220;-69
2022/11/07 08:36:54;;;;;;;0.90;0.90;;;;;;;17.39;99.23;99880.00;5051652;28;20533;-68
2022/11/07 08:39:21;;;;;;;0.90;0.90;;;;;;;17.52;98.94;99885.41;5053993;28;20197;-73
2022/11/07 08:41:48;;;;;;;1.30;1.30;;;;;;;17.50;97.21;99884.66;5054684;28;20219;-77
2022/11/07 08:44:15;;;;;;;0.60;0.60;;;;;;;17.52;96.58;99886.25;5054488;28;20596;-74
2022/11/07 08:46:41;;;;;;;0.63;0.63;;;;;;;17.61;95.26;99896.19;5051032;28;20334;-78
2022/11/07 08:49:08;;;;;;;0.53;0.53;;;;;;;17.63;94.91;99891.78;5051607;28;20198;-76
2022/11/07 08:51:35;;;;;;;0.80;0.80;;;;;;;17.62;95.30;99892.69;5052580;28;20204;-76
2022/11/07 08:54:04;;;;;;;0.50;0.50;;;;;;;17.66;93.16;99899.41;5050939;28;20197;-75
2022/11/07 08:56:32;;;;;;;0.43;0.43;;;;;;;17.71;91.70;99892.22;5052068;28;20262;-75
2022/11/07 08:59:00;;;;;;;0.40;0.40;;;;;;;17.83;91.27;99894.16;5052311;28;20201;-74
2022/11/07 09:01:27;;;;;;;0.40;0.40;;;;;;;17.99;90.11;99895.97;5048401;28;20510;-76
2022/11/07 09:03:53;;;;;;;0.50;0.50;;;;;;;18.02;90.17;99898.41;5051903;28;20700;-72
2022/11/07 09:06:21;;;;;;;0.53;0.53;;;;;;;18.05;89.13;99900.84;5052437;28;20557;-69
2022/11/07 09:08:47;;;;;;;0.53;0.53;;;;;;;18.07;87.50;99905.03;5052215;28;20228;-70
2022/11/07 09:11:17;;;;;;;0.50;0.50;;;;;;;17.99;87.88;99870.03;5052571;28;20205;-70
2022/11/07 09:13:45;;;;;;;0.40;0.40;;;;;;;18.21;86.48;99886.13;5052046;28;20193;-70
2022/11/07 09:16:15;;;;;;;0.50;0.50;;;;;;;18.27;86.38;99910.00;5052019;28;20230;-70
2022/11/07 09:18:42;;;;;;;0.73;0.73;;;;;;;18.43;86.84;99907.41;5044191;28;20196;-69
2022/11/07 09:21:09;;;;;;;0.83;0.83;;;;;;;18.44;84.82;99903.91;5050966;28;20682;-72
2022/11/07 09:23:36;;;;;;;0.67;0.67;;;;;;;18.49;86.02;99896.69;5052388;28;20229;-71
2022/11/07 09:26:04;;;;;;;0.60;0.60;;;;;;;18.59;85.09;99903.09;5052551;28;20225;-74
2022/11/07 09:28:33;;;;;;;1.17;1.17;;;;;;;18.57;84.60;99902.34;5056141;28;20592;-73
2022/11/07 09:31:02;;;;;;;0.50;0.50;;;;;;;18.50;83.59;99893.22;5055222;28;20205;-71
2022/11/07 09:33:29;;;;;;;0.60;0.60;;;;;;;18.53;85.06;99898.25;5052314;28;20209;-69
2022/11/07 09:35:59;;;;;;;0.50;0.50;;;;;;;18.56;83.40;99898.06;5052090;28;20194;-71
2022/11/07 09:38:26;;;;;;;0.43;0.43;;;;;;;18.54;84.48;99889.53;5052674;28;20596;-69
2022/11/07 09:41:00;;;;;;;0.80;0.80;;;;;;;18.72;84.94;99890.25;5052191;28;20193;-69
2022/11/07 09:43:40;;;;;;;0.50;0.50;;;;;;;18.75;83.27;99883.13;5052482;28;20254;-68
2022/11/07 09:46:17;;;;;;;0.40;0.40;;;;;;;18.88;83.01;99883.28;5051739;28;20204;-68
2022/11/07 09:48:50;;;;;;;0.60;0.60;;;;;;;18.98;81.61;99883.59;5051924;28;20251;-68
2022/11/07 09:51:25;;;;;;;0.50;0.50;;;;;;;18.99;82.10;99885.28;5051821;28;20197;-68
2022/11/07 09:53:58;;;;;;;0.43;0.43;;;;;;;18.94;81.92;99885.53;5054953;28;20192;-74
2022/11/07 09:56:27;;;;;;;0.50;0.50;;;;;;;19.03;82.26;99887.59;5051501;28;20301;-76
2022/11/07 09:59:00;;;;;;;0.50;0.50;;;;;;;19.16;81.42;99879.97;5052261;28;20202;-73
2022/11/07 10:01:30;;;;;;;0.40;0.40;;;;;;;19.23;83.03;99876.91;5050844;28;20257;-73
2022/11/07 10:03:57;;;;;;;0.40;0.40;;;;;;;19.31;82.70;99863.47;5050690;28;20220;-72
2022/11/07 10:06:27;;;;;;;0.40;0.40;;;;;;;19.22;79.37;99874.41;5053523;28;20495;-76
2022/11/07 10:09:07;;;;;;;0.40;0.40;;;;;;;19.08;80.91;99879.56;5054081;28;20201;-74
2022/11/07 10:11:36;;;;;;;0.73;0.73;;;;;;;19.18;81.26;99871.16;5051805;28;20197;-76
2022/11/07 10:14:14;;;;;;;0.50;0.50;;;;;;;19.25;80.70;99861.25;5054769;28;20201;-74
2022/11/07 10:16:52;;;;;;;0.50;0.50;;;;;;;19.30;80.81;99859.19;5047997;28;20581;-73
2022/11/07 10:19:39;;;;;;;0.40;0.40;;;;;;;19.46;80.51;99865.19;5047643;28;20660;-73
2022/11/07 10:22:28;;;;;;;0.63;0.63;;;;;;;19.59;79.30;99865.31;5050807;28;20605;-75
2022/11/07 10:25:13;;;;;;;0.67;0.67;;;;;;;19.73;80.98;99867.94;5050379;28;20217;-73
2022/11/07 10:27:39;;;;;;;0.50;0.50;;;;;;;19.74;77.57;99862.63;5050284;28;20253;-73
2022/11/07 10:30:16;;;;;;;0.57;0.57;;;;;;;19.80;77.79;99862.28;5050140;28;20195;-73
2022/11/07 10:32:53;;;;;;;0.90;0.90;;;;;;;19.71;77.07;99856.78;5051333;28;20615;-74
2022/11/07 10:35:27;;;;;;;0.87;0.87;;;;;;;19.60;77.81;99847.03;5056688;28;20193;-73
2022/11/07 10:37:55;;;;;;;0.57;0.57;;;;;;;19.71;77.82;99839.38;5049750;28;20779;-72
2022/11/07 10:40:23;;;;;;;0.60;0.60;;;;;;;19.74;77.92;99841.00;5048496;28;20230;-71
2022/11/07 10:42:51;;;;;;;0.67;0.67;;;;;;;19.71;77.26;99836.78;5051640;28;20198;-73
2022/11/07 10:45:19;;;;;;;0.40;0.40;;;;;;;19.68;78.83;99834.38;5047621;28;20283;-73
2022/11/07 10:47:57;;;;;;;0.40;0.40;;;;;;;19.77;77.40;99827.78;5049263;28;20226;-71
2022/11/07 10:50:25;;;;;;;0.70;0.70;;;;;;;19.88;77.15;99826.19;5050033;28;20291;-70
2022/11/07 10:52:54;;;;;;;0.50;0.50;;;;;;;19.91;76.37;99823.41;5049832;28;20204;-73
2022/11/07 10:55:21;;;;;;;0.57;0.57;;;;;;;19.77;77.00;99802.59;5048912;28;20749;-72
2022/11/07 10:57:52;;;;;;;0.50;0.50;;;;;;;19.86;75.72;99815.06;5050616;28;20214;-71
2022/11/07 11:00:25;;;;;;;0.40;0.40;;;;;;;19.88;77.56;99800.19;5056565;28;20230;-71
2022/11/07 11:02:55;;;;;;;1.13;1.13;;;;;;;19.88;75.46;99810.59;5053457;28;20659;-71
2022/11/07 11:05:26;;;;;;;0.60;0.60;;;;;;;19.87;76.60;99800.28;5053756;28;20228;-71
2022/11/07 11:07:56;;;;;;;0.60;0.60;;;;;;;19.75;76.45;99803.63;5054896;28;20595;-73
2022/11/07 11:10:25;;;;;;;1.03;1.03;;;;;;;19.62;77.16;99803.53;5052674;28;20683;-71
2022/11/07 11:12:52;;;;;;;0.33;0.33;;;;;;;19.70;77.45;99803.91;5053162;28;20207;-73
2022/11/07 11:15:22;;;;;;;0.40;0.40;;;;;;;19.73;77.41;99795.94;5052808;28;20306;-71
2022/11/07 11:18:00;;;;;;;0.50;0.50;;;;;;;19.69;77.13;99773.63;5052217;28;20263;-74
2022/11/07 11:20:35;;;;;;;0.77;0.77;;;;;;;19.87;76.90;99798.50;5051652;28;20207;-72
2022/11/07 11:23:05;;;;;;;0.40;0.40;;;;;;;19.92;76.27;99795.63;5052336;28;20237;-72
2022/11/07 11:25:32;;;;;;;0.40;0.40;;;;;;;19.77;76.06;99779.19;5053154;28;20214;-73
2022/11/07 11:28:05;;;;;;;0.40;0.40;;;;;;;19.81;75.73;99780.66;5053563;28;20197;-71
2022/11/07 11:30:35;;;;;;;0.53;0.53;;;;;;;19.85;76.21;99784.75;5051708;28;20631;-72
2022/11/07 11:33:11;;;;;;;0.80;0.80;;;;;;;19.93;76.88;99781.69;5052214;28;20255;-70
2022/11/07 11:35:44;;;;;;;0.70;0.70;;;;;;;20.00;76.02;99776.94;5054352;28;20202;-71
2022/11/07 11:38:17;;;;;;;0.50;0.50;;;;;;;20.05;76.81;99769.66;5054492;28;20199;-69
2022/11/07 11:40:50;;;;;;;0.77;0.77;;;;;;;19.75;76.22;99769.81;5054508;28;20207;-71
2022/11/07 11:43:21;;;;;;;0.60;0.60;;;;;;;19.78;76.94;99767.00;5054777;28;20214;-70
2022/11/07 11:46:06;;;;;;;0.57;0.57;;;;;;;19.78;76.21;99773.06;5054353;28;20223;-70